Time;durP1;ratioP1;P1;durP2;ratioP2;P2;SDS_P1;SDS_P2;PMS_P1;PMS_P2;Temp;Humidity;BMP_temperature;BMP_pressure;BME280_temperature;BME280_humidity;BME280_pressure;Samples;Min_cycle;Max_cycle;Signal;HPM_P1;HPM_P2
2022/04/26 03:36:23;;;;;;;20.58;19.38;;;;;;;-141.02;100.00;82671.50;5119175;28;20266;-85
2022/04/26 03:38:52;;;;;;;20.30;19.20;;;;;;;-141.02;100.00;82729.78;5117876;28;20197;-83
2022/04/26 03:41:19;;;;;;;20.50;19.40;;;;;;;-141.02;100.00;82755.03;5121159;28;20193;-80
2022/04/26 03:43:46;;;;;;;19.75;18.65;;;;;;;-141.02;100.00;82772.50;5118292;28;20280;-84
2022/04/26 03:46:13;;;;;;;20.25;19.15;;;;;;;-141.02;100.00;82797.75;5125250;28;20193;-86
2022/04/26 03:48:41;;;;;;;20.15;19.05;;;;;;;-141.02;100.00;82766.69;5123266;28;20193;-81
2022/04/26 03:51:08;;;;;;;19.75;18.65;;;;;;;-141.02;100.00;82747.25;5123056;28;20197;-83
2022/04/26 03:53:42;;;;;;;19.40;18.40;;;;;;;-141.02;100.00;82801.63;5124657;28;20577;-79
2022/04/26 03:56:09;;;;;;;19.98;18.88;;;;;;;-141.02;100.00;82743.38;5128414;28;20247;-85
2022/04/26 03:58:36;;;;;;;19.92;18.83;;;;;;;-141.02;100.00;82729.78;5125357;28;20189;-87
2022/04/26 04:01:04;;;;;;;20.17;18.98;;;;;;;-141.02;100.00;82683.16;5119196;28;20189;-88
2022/04/26 04:03:31;;;;;;;20.77;19.58;;;;;;;-141.02;100.00;82634.59;5125948;28;20189;-86
2022/04/26 04:05:59;;;;;;;20.67;19.48;;;;;;;-141.02;100.00;82661.78;5122434;28;20261;-88
2022/04/26 04:08:33;;;;;;;21.17;19.98;;;;;;;-141.02;100.00;82595.75;5123758;28;20215;-87
2022/04/26 04:11:01;;;;;;;21.58;20.27;;;;;;;-141.02;100.00;82584.09;5131837;28;20208;-84
2022/04/26 04:13:28;;;;;;;21.58;20.30;;;;;;;-141.02;100.00;82537.47;5124925;28;20309;-85
2022/04/26 04:15:55;;;;;;;21.20;20.00;;;;;;;-141.02;100.00;82537.47;5128539;28;20246;-81
2022/04/26 04:21:08;;;;;;;21.35;20.05;;;;;;;-141.02;100.00;82436.50;5132325;28;20180;-87
2022/04/26 04:23:50;;;;;;;21.90;20.60;;;;;;;-141.02;96.91;82452.03;5131480;28;20253;-80
2022/04/26 04:26:18;;;;;;;21.25;20.00;;;;;;;-141.02;98.42;82405.41;5132432;28;20184;-84
2022/04/26 04:31:26;;;;;;;21.60;20.30;;;;;;;-141.02;86.60;82292.75;5131344;28;20197;-85
2022/04/26 04:33:53;;;;;;;22.00;20.70;;;;;;;-141.02;90.91;82331.59;5124154;28;20216;-85
2022/04/26 04:36:24;;;;;;;21.48;20.27;;;;;;;-141.02;90.89;82308.31;5128174;28;20249;-85
2022/04/26 04:38:51;;;;;;;22.02;20.73;;;;;;;-141.02;85.79;82230.63;5116845;28;20234;-87
2022/04/26 04:41:18;;;;;;;21.25;20.05;;;;;;;-141.02;83.27;82250.03;5120066;28;20260;-88
2022/04/26 04:43:45;;;;;;;21.80;20.50;;;;;;;-141.02;79.29;82182.06;5122611;28;20197;-84
2022/04/26 04:46:13;;;;;;;21.30;20.10;;;;;;;-141.02;75.42;82090.78;5121759;28;20224;-85
2022/04/26 04:48:40;;;;;;;21.15;19.95;;;;;;;-141.02;73.71;82086.91;5118299;28;20196;-87
2022/04/26 04:51:07;;;;;;;21.60;20.40;;;;;;;-141.02;73.66;82092.72;5115972;28;20225;-86
2022/04/26 04:53:36;;;;;;;21.17;19.98;;;;;;;-141.02;72.87;82003.41;5119859;28;20193;-87
2022/04/26 04:56:03;;;;;;;21.40;20.20;;;;;;;-141.02;70.29;81997.56;5115581;28;20781;-88
2022/04/26 04:58:29;;;;;;;20.80;19.60;;;;;;;-141.02;72.77;82024.75;5113926;28;20189;-86
2022/04/26 05:00:56;;;;;;;20.88;19.70;;;;;;;-141.02;72.64;82038.34;5119571;28;20272;-89
2022/04/26 05:03:23;;;;;;;20.80;19.70;;;;;;;-141.02;71.16;81999.50;5123080;28;20240;-86
2022/04/26 05:05:51;;;;;;;21.10;19.90;;;;;;;-141.02;72.51;81861.63;5118763;28;20580;-88
2022/04/26 05:08:18;;;;;;;20.75;19.65;;;;;;;-141.02;72.42;82020.88;5113562;28;20279;-88
2022/04/26 05:10:46;;;;;;;21.02;19.83;;;;;;;-141.02;72.19;82013.09;5113514;28;20193;-86
2022/04/26 05:13:13;;;;;;;19.90;18.80;;;;;;;-141.02;72.07;82050.00;5113206;28;20189;-88
2022/04/26 05:15:42;;;;;;;19.75;18.65;;;;;;;-141.02;73.84;82063.59;5113510;28;20292;-87
2022/04/26 05:18:09;;;;;;;19.42;18.42;;;;;;;-141.02;74.58;82073.31;5112288;28;20225;-86
2022/04/26 05:20:36;;;;;;;19.88;18.77;;;;;;;-141.02;74.47;83532.06;5112725;28;20228;-85
2022/04/26 05:25:48;;;;;;;20.00;18.90;;;;;;;-141.02;79.58;82125.75;5112454;28;20210;-83
2022/04/26 05:28:15;;;;;;;19.60;18.50;;;;;;;-141.02;81.14;82184.00;5112601;28;20199;-84
2022/04/26 05:30:42;;;;;;;20.23;19.13;;;;;;;-141.02;83.50;82168.47;5112694;28;20246;-84
2022/04/26 05:33:09;;;;;;;19.33;18.30;;;;;;;-141.02;85.67;82184.00;5112671;28;20285;-85
2022/04/26 05:35:36;;;;;;;19.95;18.85;;;;;;;-141.02;85.02;82187.88;5112469;28;20276;-86
2022/04/26 05:38:03;;;;;;;20.23;19.13;;;;;;;-141.02;84.67;82170.41;5112442;28;20232;-83
2022/04/26 05:40:30;;;;;;;19.25;18.25;;;;;;;-141.02;87.01;82168.47;5113452;28;20306;-86
2022/04/26 05:42:59;;;;;;;19.25;18.25;;;;;;;-141.02;85.67;82152.94;5112473;28;20306;-85
2022/04/26 05:45:27;;;;;;;19.98;18.88;;;;;;;-141.02;86.16;82176.25;5112635;28;20228;-86
2022/04/26 05:47:54;;;;;;;20.05;18.95;;;;;;;-141.02;84.08;82164.59;5112932;28;20661;-82
2022/04/26 05:50:21;;;;;;;19.48;18.38;;;;;;;-141.02;86.07;82156.81;5112608;28;20201;-85
2022/04/26 05:52:48;;;;;;;19.17;18.17;;;;;;;-141.02;82.46;82133.50;5112409;28;20198;-86
2022/04/26 05:55:15;;;;;;;19.50;18.50;;;;;;;-141.02;80.55;82102.44;5113222;28;20193;-81
2022/04/26 05:57:43;;;;;;;19.30;18.30;;;;;;;-141.02;80.47;82156.81;5116028;28;20260;-84
2022/04/26 06:00:13;;;;;;;19.48;18.48;;;;;;;-141.02;75.70;82083.03;5116103;28;20201;-82
2022/04/26 06:02:40;;;;;;;19.08;18.08;;;;;;;-141.02;75.83;82075.25;5115524;28;20324;-84
2022/04/26 06:05:08;;;;;;;19.73;18.63;;;;;;;-141.02;74.49;82063.59;5116455;28;20232;-82
2022/04/26 06:07:35;;;;;;;18.35;17.35;;;;;;;-141.02;73.57;82024.75;5117368;28;20279;-87
2022/04/26 06:10:02;;;;;;;19.67;18.58;;;;;;;-141.02;72.24;81989.81;5116708;28;20289;-84
2022/04/26 06:12:31;;;;;;;19.23;18.23;;;;;;;-141.02;71.03;81978.16;5115773;28;20224;-85
2022/04/26 06:14:59;;;;;;;19.40;18.40;;;;;;;-141.02;69.84;81947.09;5116981;28;20189;-84
2022/04/26 06:17:28;;;;;;;19.42;18.42;;;;;;;-141.02;68.88;81931.53;5116133;27;20273;-87
2022/04/26 06:19:55;;;;;;;19.20;18.20;;;;;;;-141.02;70.08;81958.72;5115602;28;20223;-84
2022/04/26 06:22:22;;;;;;;19.02;18.02;;;;;;;-141.02;69.56;81937.38;5116326;28;20197;-83
2022/04/26 06:24:51;;;;;;;19.55;18.45;;;;;;;-141.02;69.61;81966.50;5115989;28;20272;-81
2022/04/26 06:27:18;;;;;;;19.52;18.42;;;;;;;-141.02;71.60;82015.06;5116198;28;20275;-82
2022/04/26 06:29:45;;;;;;;18.98;17.98;;;;;;;-141.02;70.83;81916.00;5116272;28;20235;-84
2022/04/26 06:32:12;;;;;;;18.35;17.38;;;;;;;-141.02;69.14;81865.53;5116300;28;20280;-85
2022/04/26 06:34:40;;;;;;;19.15;18.05;;;;;;;-141.02;66.27;81850.00;5115253;28;20238;-82
2022/04/26 06:37:07;;;;;;;19.25;18.15;;;;;;;-141.02;66.91;81881.06;5114976;28;20315;-81
2022/04/26 06:39:34;;;;;;;19.38;18.27;;;;;;;-141.02;65.90;81892.72;5114973;28;20193;-82
2022/04/26 06:42:01;;;;;;;19.17;18.17;;;;;;;-141.02;66.24;81857.75;5115048;28;20228;-81
2022/04/26 06:44:28;;;;;;;19.25;18.25;;;;;;;-141.02;67.62;81879.13;5115295;28;20189;-83
2022/04/26 06:46:55;;;;;;;19.00;18.00;;;;;;;-141.02;68.26;81848.03;5114991;28;20288;-81
2022/04/26 06:49:22;;;;;;;19.35;18.35;;;;;;;-141.02;66.67;81834.44;5115295;28;20229;-82
2022/04/26 06:51:50;;;;;;;18.85;17.85;;;;;;;-141.02;67.36;81873.28;5114666;28;20698;-80
2022/04/26 06:54:17;;;;;;;19.15;18.13;;;;;;;-141.02;66.98;81834.44;5115007;28;20246;-83
2022/04/26 06:56:46;;;;;;;18.75;17.77;;;;;;;-141.02;66.24;81803.38;5114862;28;20260;-82
2022/04/26 06:59:14;;;;;;;19.58;18.58;;;;;;;-141.02;66.05;81818.91;5115204;27;20337;-84
2022/04/26 07:01:41;;;;;;;19.13;18.13;;;;;;;-141.02;67.84;81857.75;5115334;28;20200;-83
2022/04/26 07:04:08;;;;;;;19.63;18.63;;;;;;;-141.02;65.65;81789.78;5114945;28;20272;-81
2022/04/26 07:06:35;;;;;;;18.90;18.00;;;;;;;-141.02;65.52;81818.91;5115338;28;20199;-81
2022/04/26 07:09:03;;;;;;;19.50;18.50;;;;;;;-141.02;66.82;81807.25;5114504;28;20239;-82
2022/04/26 07:11:31;;;;;;;19.25;18.25;;;;;;;-141.02;63.82;81721.81;5114314;28;20674;-80
2022/04/26 07:13:58;;;;;;;19.42;18.38;;;;;;;-141.02;63.55;81756.78;5114437;28;20193;-83
2022/04/26 07:16:25;;;;;;;19.30;18.30;;;;;;;-141.02;64.81;81716.00;5114305;28;20194;-83
2022/04/26 07:18:52;;;;;;;19.27;18.27;;;;;;;-141.02;65.14;81745.13;5114693;28;20633;-83
2022/04/26 07:21:19;;;;;;;18.83;17.83;;;;;;;-141.02;64.30;81694.63;5114452;28;20280;-80
2022/04/26 07:23:46;;;;;;;18.85;17.85;;;;;;;-141.02;62.29;81675.22;5114438;28;20288;-86
2022/04/26 07:26:15;;;;;;;19.55;18.45;;;;;;;-141.02;63.63;81358.72;5114165;28;20676;-80
2022/04/26 07:28:42;;;;;;;19.38;18.38;;;;;;;-141.02;63.74;81644.16;5113993;28;20288;-83
2022/04/26 07:31:09;;;;;;;18.63;17.63;;;;;;;-141.02;63.71;81607.25;5114477;28;20189;-83
2022/04/26 07:36:22;;;;;;;19.33;18.23;;;;;;;-141.02;63.75;81688.81;5114489;28;20192;-85
2022/04/26 07:38:50;;;;;;;19.15;18.15;;;;;;;-141.02;64.10;81659.69;5113770;28;20228;-82
2022/04/26 07:41:18;;;;;;;19.15;18.15;;;;;;;-141.02;63.04;81628.63;5113789;28;20204;-79
2022/04/26 07:43:46;;;;;;;19.40;18.40;;;;;;;-141.02;62.51;81593.66;5113975;28;20670;-84
2022/04/26 07:46:17;;;;;;;19.60;18.50;;;;;;;-141.02;62.91;81582.03;5113716;28;20197;-83
2022/04/26 07:48:44;;;;;;;18.98;17.98;;;;;;;-141.02;61.49;81523.75;5113567;28;20254;-82
2022/04/26 07:51:12;;;;;;;19.20;18.20;;;;;;;-141.02;61.37;81508.22;5113686;27;20199;-82
2022/04/26 07:53:39;;;;;;;19.60;18.50;;;;;;;-141.02;61.68;81492.69;5113991;28;20197;-83
2022/04/26 07:56:07;;;;;;;19.92;18.83;;;;;;;-141.02;61.13;81434.44;5113959;28;20189;-83
2022/04/26 07:58:35;;;;;;;20.17;19.08;;;;;;;-141.02;60.31;81453.88;5113658;28;20706;-79
2022/04/26 08:01:03;;;;;;;19.48;18.48;;;;;;;-141.02;60.13;81479.09;5113386;28;20196;-80
2022/04/26 08:03:32;;;;;;;19.73;18.63;;;;;;;-141.02;60.88;81436.38;5113300;28;20324;-85
2022/04/26 08:05:59;;;;;;;19.75;18.65;;;;;;;-141.02;59.70;81424.75;5113469;28;20193;-82
2022/04/26 08:08:26;;;;;;;19.55;18.55;;;;;;;-141.02;59.57;81407.25;5113741;28;20199;-82
2022/04/26 08:10:53;;;;;;;19.38;18.38;;;;;;;-141.02;60.45;81436.38;5113639;28;20221;-81
2022/04/26 08:13:20;;;;;;;19.15;18.15;;;;;;;-141.02;60.68;81413.09;5113130;28;20199;-81
2022/04/26 08:15:48;;;;;;;19.83;18.83;;;;;;;-141.02;60.45;81418.91;5113473;28;20675;-82
2022/04/26 08:18:16;;;;;;;19.33;18.33;;;;;;;-141.02;59.08;81401.44;5112357;28;20612;-84
2022/04/26 08:20:44;;;;;;;19.35;18.35;;;;;;;-141.02;59.92;81411.16;5113436;28;20193;-81
2022/04/26 08:23:11;;;;;;;19.40;18.40;;;;;;;-141.02;59.81;81316.00;5112969;28;20639;-81
2022/04/26 08:28:24;;;;;;;18.88;17.88;;;;;;;-141.02;58.31;81325.72;5113294;28;20231;-84
2022/04/26 08:30:53;;;;;;;19.00;18.00;;;;;;;-141.02;59.25;81372.31;5113246;28;20197;-82
2022/04/26 08:33:20;;;;;;;19.73;18.73;;;;;;;-141.02;59.46;81352.91;5112846;28;20658;-84
2022/04/26 08:35:47;;;;;;;19.60;18.60;;;;;;;-141.02;59.61;81300.47;5112749;28;20249;-81
2022/04/26 08:38:14;;;;;;;19.65;18.65;;;;;;;-141.02;58.45;81259.69;5113009;28;20301;-83
2022/04/26 08:40:43;;;;;;;20.25;19.15;;;;;;;-141.02;57.08;81211.16;5113006;28;20246;-81
2022/04/26 08:43:10;;;;;;;20.20;19.10;;;;;;;-141.02;58.77;81255.81;5112773;28;20572;-84
2022/04/26 08:45:39;;;;;;;20.33;19.23;;;;;;;-141.02;58.68;81283.00;5112764;28;20195;-83
2022/04/26 08:51:04;;;;;;;20.20;19.10;;;;;;;-141.02;58.12;81248.06;5113326;28;20656;-87
2022/04/26 08:53:33;;;;;;;19.75;18.65;;;;;;;-141.02;57.68;81257.75;5112832;28;20192;-83
2022/04/26 08:56:03;;;;;;;20.38;19.17;;;;;;;-141.02;59.52;81310.19;5112540;28;20654;-80
2022/04/26 08:58:33;;;;;;;20.00;18.90;;;;;;;-141.02;57.64;81203.41;5112838;28;20262;-85
2022/04/26 09:01:12;;;;;;;20.08;18.98;;;;;;;-141.02;57.57;81248.06;5113171;28;20275;-79
2022/04/26 09:03:54;;;;;;;20.17;19.08;;;;;;;-141.02;58.42;81112.16;5112346;28;20260;-81
2022/04/26 09:06:23;;;;;;;19.45;18.45;;;;;;;-141.02;58.24;81232.53;5112577;28;20216;-84
2022/04/26 09:08:50;;;;;;;19.38;18.38;;;;;;;-141.02;58.70;81213.09;5112887;28;20197;-84
2022/04/26 09:11:22;;;;;;;20.02;18.92;;;;;;;-141.02;56.99;81211.16;5112437;28;20232;-83
2022/04/26 09:13:50;;;;;;;19.90;18.80;;;;;;;-141.02;57.14;81191.75;5112748;28;20224;-83
2022/04/26 09:16:19;;;;;;;19.95;18.85;;;;;;;-141.02;58.18;81203.41;5112721;28;20196;-82
2022/04/26 09:18:56;;;;;;;20.02;18.92;;;;;;;-141.02;57.23;81172.34;5112391;28;20231;-83
2022/04/26 09:21:27;;;;;;;20.45;19.25;;;;;;;-141.02;56.01;81123.81;5112346;28;20197;-83
2022/04/26 09:23:57;;;;;;;20.20;19.00;;;;;;;-141.02;56.79;81106.31;5112513;28;20648;-83
2022/04/26 09:26:25;;;;;;;77.57;24.08;;;;;;;-141.02;57.03;81141.28;5112621;28;20225;-82
2022/04/26 09:28:53;;;;;;;19.83;18.73;;;;;;;-141.02;56.93;81032.56;5112894;28;20283;-82
2022/04/26 09:31:22;;;;;;;19.48;18.38;;;;;;;-141.02;55.79;81086.91;5116626;28;20197;-84
2022/04/26 09:33:52;;;;;;;19.85;18.75;;;;;;;-141.02;57.17;81104.38;5117273;28;20236;-81
2022/04/26 09:36:21;;;;;;;19.80;18.70;;;;;;;-141.02;57.34;81117.97;5116583;28;20250;-84
2022/04/26 09:38:54;;;;;;;19.77;18.67;;;;;;;-141.02;56.03;81065.56;5116515;28;20267;-81
2022/04/26 09:41:21;;;;;;;19.80;18.70;;;;;;;-141.02;56.01;81044.19;5116563;28;20574;-79
2022/04/26 09:44:02;;;;;;;19.67;18.58;;;;;;;-141.02;56.75;81084.97;5116146;28;20193;-81
2022/04/26 09:46:49;;;;;;;19.98;18.88;;;;;;;-141.02;55.77;81032.56;5116335;28;20754;-83
2022/04/26 09:49:19;;;;;;;20.25;19.15;;;;;;;-141.02;56.52;80991.78;5116908;28;20196;-87
2022/04/26 09:51:48;;;;;;;19.80;18.70;;;;;;;-141.02;55.00;80923.84;5115984;28;20208;-81
2022/04/26 09:54:15;;;;;;;19.75;18.65;;;;;;;-141.02;55.10;81020.91;5116398;27;20197;-79
2022/04/26 09:56:45;;;;;;;19.75;18.65;;;;;;;-141.02;54.97;81024.78;5116154;28;20193;-84
2022/04/26 09:59:15;;;;;;;20.08;18.98;;;;;;;-141.02;54.79;80949.06;5116194;28;20231;-87
2022/04/26 10:01:45;;;;;;;20.23;19.13;;;;;;;-141.02;55.69;81028.66;5116423;28;20620;-84
2022/04/26 10:04:17;;;;;;;19.35;18.35;;;;;;;-141.02;57.04;81053.91;5116012;27;20767;-82
2022/04/26 10:06:45;;;;;;;19.45;18.38;;;;;;;-141.02;55.69;80987.91;5115879;28;20659;-85
2022/04/26 10:09:13;;;;;;;19.77;18.67;;;;;;;-141.02;55.05;80951.00;5115855;28;20230;-85
2022/04/26 10:11:40;;;;;;;19.65;18.65;;;;;;;-141.02;56.03;80976.25;5115827;28;20548;-85
2022/04/26 10:14:09;;;;;;;19.30;18.30;;;;;;;-141.02;55.38;80978.19;5115855;28;20199;-85
2022/04/26 10:16:37;;;;;;;20.08;18.98;;;;;;;-141.02;55.39;80982.06;5115897;28;20189;-77
2022/04/26 10:19:07;;;;;;;19.77;18.77;;;;;;;-141.02;54.93;80962.66;5116197;28;20286;-86
2022/04/26 10:21:49;;;;;;;20.15;19.05;;;;;;;-141.02;56.09;80642.34;5115662;28;20697;-82
2022/04/26 10:24:22;;;;;;;20.08;18.98;;;;;;;-141.02;55.12;80921.91;5115670;28;20192;-80
2022/04/26 10:26:51;;;;;;;19.85;18.75;;;;;;;-141.02;55.60;80935.47;5115926;28;20189;-80
2022/04/26 10:29:20;;;;;;;19.90;18.80;;;;;;;-141.02;55.36;80751.06;5115538;28;20201;-82
2022/04/26 10:31:49;;;;;;;20.10;19.00;;;;;;;-141.02;56.63;80952.94;5115327;28;20659;-78
2022/04/26 10:34:27;;;;;;;20.10;19.00;;;;;;;-141.02;55.88;80995.66;5115255;27;20197;-83
2022/04/26 10:36:55;;;;;;;19.77;18.67;;;;;;;-141.02;54.54;80910.25;5116033;28;20220;-85
2022/04/26 10:39:37;;;;;;;19.75;18.65;;;;;;;-141.02;56.40;80964.59;5115391;28;20327;-83
2022/04/26 10:42:27;;;;;;;19.45;18.45;;;;;;;-141.02;55.31;81005.38;5114836;28;20221;-83
2022/04/26 10:44:59;;;;;;;19.70;18.60;;;;;;;-141.02;55.37;80952.94;5115423;28;20197;-84
2022/04/26 10:47:28;;;;;;;19.65;18.55;;;;;;;-141.02;54.07;80871.41;5115243;28;20191;-86
2022/04/26 10:49:58;;;;;;;19.80;18.70;;;;;;;-141.02;54.31;80813.19;5115255;28;20198;-85
2022/04/26 10:52:35;;;;;;;19.92;18.83;;;;;;;-141.02;54.38;80805.41;5115350;28;20192;-84
2022/04/26 10:55:09;;;;;;;19.80;18.70;;;;;;;-141.02;53.80;80766.59;5114967;28;20560;-78
2022/04/26 10:57:39;;;;;;;19.90;18.80;;;;;;;-141.02;52.18;80626.81;5115136;28;20189;-82
2022/04/26 11:00:08;;;;;;;20.00;18.90;;;;;;;-141.02;53.09;80716.13;5115453;28;20205;-85
2022/04/26 11:02:40;;;;;;;21.35;19.98;;;;;;;-141.02;52.88;80696.69;5114650;28;20225;-82
2022/04/26 11:05:10;;;;;;;19.67;18.58;;;;;;;-141.02;52.93;80729.72;5115039;28;20558;-82
2022/04/26 11:07:38;;;;;;;18.95;17.95;;;;;;;-141.02;51.92;80688.94;5114897;28;20687;-81
2022/04/26 11:10:09;;;;;;;19.40;18.40;;;;;;;-141.02;51.69;80692.81;5114832;28;20250;-81
2022/04/26 11:12:37;;;;;;;19.45;18.35;;;;;;;-141.02;51.19;80166.78;5115003;28;20191;-81
2022/04/26 11:15:07;;;;;;;19.65;18.58;;;;;;;-141.02;50.94;80619.06;5114799;28;20199;-81
2022/04/26 11:17:35;;;;;;;19.30;18.30;;;;;;;-141.02;53.19;80824.81;5114682;28;20276;-81
2022/04/26 11:20:04;;;;;;;20.10;19.00;;;;;;;-141.02;52.12;80848.13;5114481;28;20260;-80
2022/04/26 11:22:32;;;;;;;19.95;18.85;;;;;;;-141.02;52.44;80844.25;5114767;28;20338;-80
2022/04/26 11:28:01;;;;;;;19.10;18.10;;;;;;;-141.02;54.58;80923.84;5114823;28;20192;-81
2022/04/26 11:30:30;;;;;;;19.23;18.23;;;;;;;-141.02;52.92;80865.59;5114049;28;20220;-81
2022/04/26 11:32:58;;;;;;;18.92;17.92;;;;;;;-141.02;52.86;80793.75;5114283;28;20197;-80
2022/04/26 11:35:25;;;;;;;18.73;17.73;;;;;;;-141.02;53.71;80813.19;5114914;28;20197;-81
2022/04/26 11:37:53;;;;;;;19.15;18.15;;;;;;;-141.02;53.76;80852.00;5114164;28;20654;-86
2022/04/26 11:40:30;;;;;;;20.08;18.98;;;;;;;-141.02;53.89;80919.94;5113998;28;20292;-80
2022/04/26 11:42:58;;;;;;;19.55;18.48;;;;;;;-141.02;54.50;80956.84;5113758;28;20197;-83
2022/04/26 11:45:29;;;;;;;19.35;18.35;;;;;;;-141.02;54.44;80888.88;5113695;27;20194;-82
2022/04/26 11:47:57;;;;;;;19.80;18.70;;;;;;;-141.02;54.24;80840.34;5113692;28;20189;-80
2022/04/26 11:50:26;;;;;;;19.40;18.35;;;;;;;-141.02;52.14;80741.34;5113998;28;20192;-79
2022/04/26 11:52:59;;;;;;;19.80;18.70;;;;;;;-141.02;52.01;80770.47;5113253;28;20201;-80
2022/04/26 11:55:30;;;;;;;19.52;18.42;;;;;;;-141.02;53.72;80852.00;5114511;28;20242;-77
2022/04/26 11:58:08;;;;;;;19.45;18.45;;;;;;;-141.02;54.12;80873.34;5113392;28;20193;-76
2022/04/26 12:00:36;;;;;;;19.75;18.65;;;;;;;-141.02;53.31;80867.53;5113802;28;20193;-83
2022/04/26 12:03:06;;;;;;;19.50;18.48;;;;;;;-141.02;53.40;80918.00;5113149;28;20241;-81
2022/04/26 12:05:39;;;;;;;19.70;18.70;;;;;;;-141.02;53.36;80510.34;5113363;28;20200;-76
2022/04/26 12:08:10;;;;;;;20.25;19.15;;;;;;;-141.02;53.27;80789.88;5113577;28;20253;-81
2022/04/26 12:10:39;;;;;;;19.90;18.80;;;;;;;-141.02;52.17;80762.69;5113312;28;20185;-78
2022/04/26 12:13:07;;;;;;;20.25;19.15;;;;;;;-141.02;53.14;80747.19;5113158;28;20228;-84
2022/04/26 12:15:37;;;;;;;19.63;18.52;;;;;;;-141.02;52.02;80642.34;5113702;28;20254;-83
2022/04/26 12:18:07;;;;;;;20.20;19.10;;;;;;;-141.02;51.14;80716.13;5113608;28;20273;-85
2022/04/26 12:20:36;;;;;;;19.50;18.50;;;;;;;-141.02;51.07;80545.28;5113049;28;20627;-83
2022/04/26 12:23:04;;;;;;;19.48;18.48;;;;;;;-141.02;51.49;80630.69;5113074;28;20193;-84
2022/04/26 12:25:33;;;;;;;19.70;18.70;;;;;;;-141.02;51.84;80710.28;5113906;28;20233;-83
2022/04/26 12:28:07;;;;;;;19.90;18.80;;;;;;;-141.02;56.38;80859.78;5113100;28;20197;-76
2022/04/26 12:30:37;;;;;;;19.98;18.88;;;;;;;-141.02;57.34;80974.31;5113009;28;20223;-85
2022/04/26 12:33:07;;;;;;;19.20;18.20;;;;;;;-141.02;56.97;80964.59;5113467;28;20200;-84
2022/04/26 12:35:34;;;;;;;19.55;18.55;;;;;;;-141.02;56.83;80949.06;5113084;28;20192;-79
2022/04/26 12:38:06;;;;;;;20.17;19.08;;;;;;;-141.02;58.36;81123.81;5113107;28;20637;-79
2022/04/26 12:40:34;;;;;;;20.17;19.08;;;;;;;-141.02;59.00;81176.22;5112726;28;20689;-74
2022/04/26 12:43:01;;;;;;;19.65;18.65;;;;;;;-141.02;60.13;81240.28;5113150;28;20193;-79
2022/04/26 12:45:30;;;;;;;20.17;19.08;;;;;;;-141.02;60.74;81250.00;5113226;28;20258;-83
2022/04/26 12:50:53;;;;;;;20.15;19.05;;;;;;;-141.02;59.60;81240.28;5113450;28;20692;-83
2022/04/26 12:53:25;;;;;;;20.38;19.27;;;;;;;-141.02;60.24;81220.88;5112891;28;20197;-85
2022/04/26 12:55:53;;;;;;;20.05;18.95;;;;;;;-141.02;58.66;81092.75;5112747;28;20263;-82
2022/04/26 12:58:36;;;;;;;19.98;18.88;;;;;;;-141.02;59.61;81228.63;5112861;28;20228;-87
2022/04/26 13:01:05;;;;;;;19.55;18.55;;;;;;;-141.02;60.14;81259.69;5112538;28;20189;-85
2022/04/26 13:03:33;;;;;;;19.42;18.42;;;;;;;-141.02;60.99;81283.00;5112285;28;20285;-77
2022/04/26 13:06:09;;;;;;;20.50;19.40;;;;;;;-141.02;60.88;81325.72;5112504;28;20249;-83
2022/04/26 13:08:37;;;;;;;20.25;19.15;;;;;;;-141.02;61.52;81321.84;5113068;28;20201;-84
2022/04/26 13:11:05;;;;;;;20.42;19.33;;;;;;;-141.02;60.97;81321.84;5112843;28;20236;-81
2022/04/26 13:13:33;;;;;;;19.90;18.80;;;;;;;-141.02;62.07;81380.09;5112735;28;20197;-83
2022/04/26 13:16:00;;;;;;;19.88;18.77;;;;;;;-141.02;60.99;81337.38;5112506;28;20280;-84
2022/04/26 13:18:29;;;;;;;20.13;19.02;;;;;;;-141.02;61.05;81329.59;5112731;28;20276;-79
2022/04/26 13:20:57;;;;;;;20.67;19.55;;;;;;;-141.02;62.30;81376.19;5112607;28;20193;-79
2022/04/26 13:23:25;;;;;;;20.15;19.05;;;;;;;-141.02;63.70;81329.59;5112336;28;20250;-83
2022/04/26 13:25:53;;;;;;;20.63;19.52;;;;;;;-141.02;65.18;81519.88;5112738;28;20207;-80
2022/04/26 13:28:20;;;;;;;20.88;19.77;;;;;;;-141.02;65.29;81578.13;5112517;28;20200;-78
2022/04/26 13:30:47;;;;;;;20.95;19.75;;;;;;;-141.02;65.12;81488.81;5112614;28;20193;-78
2022/04/26 13:33:14;;;;;;;20.38;19.27;;;;;;;-141.02;65.04;81543.19;5112581;28;20224;-79
2022/04/26 13:35:43;;;;;;;19.15;18.15;;;;;;;-141.02;65.78;81554.84;5112588;28;20221;-81
2022/04/26 13:38:11;;;;;;;20.90;19.70;;;;;;;-141.02;64.40;81562.59;5112240;28;20736;-80
2022/04/26 13:40:38;;;;;;;19.88;18.77;;;;;;;-141.02;64.80;81550.94;5112481;28;20312;-84
2022/04/26 13:43:06;;;;;;;20.50;19.40;;;;;;;-141.02;64.52;81376.19;5112429;28;20242;-81
2022/04/26 13:45:34;;;;;;;20.33;19.23;;;;;;;-141.02;64.56;81558.72;5112140;28;20201;-80
2022/04/26 13:48:01;;;;;;;20.10;19.00;;;;;;;-141.02;64.37;81582.03;5112472;28;20280;-76
2022/04/26 13:50:29;;;;;;;20.38;19.27;;;;;;;-141.02;65.03;81624.72;5112487;28;20204;-80
2022/04/26 13:52:57;;;;;;;20.70;19.60;;;;;;;-141.02;65.57;81597.56;5112335;28;20200;-77
2022/04/26 13:55:26;;;;;;;20.85;19.65;;;;;;;-141.02;66.25;81655.81;5112508;28;20232;-87
2022/04/26 13:57:55;;;;;;;21.42;20.33;;;;;;;-141.02;67.26;81422.81;5112458;28;20201;-82
2022/04/26 14:00:23;;;;;;;23.42;22.02;;;;;;;-141.02;73.23;81768.44;5111973;28;20707;-76
2022/04/26 14:02:50;;;;;;;24.60;23.30;;;;;;;-141.02;83.15;81867.47;5111784;28;20646;-79
2022/04/26 14:05:20;;;;;;;24.42;23.02;;;;;;;-141.02;88.91;81958.72;5112365;28;20193;-78
2022/04/26 14:07:47;;;;;;;30.75;28.45;;;;;;;-141.02;99.07;82071.38;5112323;28;20276;-81
2022/04/26 14:10:16;;;;;;;31.98;29.55;;;;;;;-141.02;100.00;82185.94;5112118;28;20284;-77
2022/04/26 14:12:44;;;;;;;28.45;26.05;;;;;;;-141.02;100.00;82953.16;5111895;28;20674;-78
2022/04/26 14:23:27;;;;;;;32.58;29.88;;;;;;;-141.02;100.00;90073.94;5115739;28;20185;-74
2022/04/26 14:25:56;;;;;;;31.98;29.05;;;;;;;-141.02;100.00;89875.41;5115616;28;20581;-74
2022/04/26 14:28:23;;;;;;;35.55;32.38;;;;;;;-141.02;100.00;89669.09;5115522;28;20197;-74
2022/04/26 14:30:50;;;;;;;34.00;30.42;;;;;;;-141.02;100.00;88910.13;5115536;28;20279;-74
2022/04/26 14:33:18;;;;;;;36.55;32.55;;;;;;;-141.02;100.00;88194.13;5115202;28;20692;-74
2022/04/26 14:35:45;;;;;;;39.85;35.55;;;;;;;-141.02;100.00;87633.88;5115308;28;20193;-78
2022/04/26 14:38:12;;;;;;;38.17;34.15;;;;;;;-141.02;100.00;87338.22;5115323;28;20197;-77
2022/04/26 14:40:40;;;;;;;42.13;37.53;;;;;;;-141.02;100.00;87598.88;5115358;28;20267;-79
2022/04/26 14:43:10;;;;;;;40.97;36.58;;;;;;;-141.02;100.00;87641.66;5115836;28;20274;-80
2022/04/26 14:45:45;;;;;;;49.03;44.03;;;;;;;-141.02;100.00;87530.78;5115794;28;20242;-76
2022/04/26 14:48:16;;;;;;;46.42;42.03;;;;;;;-141.02;100.00;87229.31;5115563;28;20277;-73
2022/04/26 14:50:44;;;;;;;44.70;41.25;;;;;;;-141.02;100.00;86885.06;5115341;28;20185;-78
2022/04/26 14:53:11;;;;;;;47.20;43.70;;;;;;;-141.02;100.00;86272.53;5115281;28;20201;-75
2022/04/26 14:55:38;;;;;;;46.95;43.65;;;;;;;-141.02;100.00;86540.88;5115413;27;20224;-81
2022/04/26 14:58:06;;;;;;;42.22;39.40;;;;;;;-141.02;100.00;86548.66;5115199;28;20569;-79
2022/04/26 15:00:36;;;;;;;36.35;33.95;;;;;;;-141.02;100.00;86245.31;5115316;28;20232;-77
2022/04/26 15:03:03;;;;;;;35.15;32.95;;;;;;;-141.02;100.00;86292.00;5114515;28;20235;-73
2022/04/26 15:05:30;;;;;;;27.30;25.25;;;;;;;-141.02;100.00;86204.50;5115549;28;20201;-76
2022/04/26 15:10:42;;;;;;;27.85;25.85;;;;;;;-141.02;100.00;85947.84;5115332;28;20327;-78
2022/04/26 15:18:39;;;;;;;24.13;22.52;;;;;;;-141.02;100.00;85658.19;5114735;28;20188;-78
2022/04/26 15:21:09;;;;;;;24.00;22.50;;;;;;;-141.02;100.00;85283.00;5114402;28;20264;-80